createdAt,value
2022-09-23T00:00:18.111Z,101163.55
2022-09-23T00:03:45.483Z,101159.02
2022-09-23T00:06:51.327Z,101163.25
2022-09-23T00:09:56.884Z,101164.52
2022-09-23T00:13:02.983Z,101169.14
2022-09-23T00:16:09.893Z,101167.05
2022-09-23T00:19:15.402Z,101165.23
2022-09-23T00:22:20.659Z,101159.34
2022-09-23T00:25:27.504Z,101157.20
2022-09-23T00:28:33.062Z,101160.44
2022-09-23T00:31:38.630Z,101162.70
2022-09-23T00:34:48.035Z,101158.45
2022-09-23T00:37:53.388Z,101156.10
2022-09-23T00:40:59.517Z,101157.50
2022-09-23T00:44:18.512Z,101158.13
2022-09-23T00:47:26.260Z,101156.87
2022-09-23T00:50:35.238Z,101157.34
2022-09-23T00:53:40.918Z,101154.81
2022-09-23T00:56:46.382Z,101151.77
2022-09-23T00:59:52.526Z,101151.91
2022-09-23T01:02:58.356Z,101151.63
2022-09-23T01:06:03.556Z,101148.86
2022-09-23T01:09:09.017Z,101147.43
2022-09-23T01:12:26.431Z,101140.92
2022-09-23T01:15:38.543Z,101141.36
2022-09-23T01:18:47.691Z,101136.16
2022-09-23T01:21:55.077Z,101135.02
2022-09-23T01:25:10.789Z,101130.65
2022-09-23T01:28:36.817Z,101129.19
2022-09-23T01:31:45.536Z,101127.64
2022-09-23T01:34:55.645Z,101127.86
2022-09-23T01:38:10.221Z,101126.49
2022-09-23T01:41:25.291Z,101131.27
2022-09-23T01:44:33.438Z,101129.73
2022-09-23T01:47:41.010Z,101130.89
2022-09-23T01:50:59.471Z,101129.10
2022-09-23T01:54:08.418Z,101127.17
2022-09-23T01:57:18.331Z,101127.85
2022-09-23T02:00:24.546Z,101125.24
2022-09-23T02:03:32.631Z,101126.16
2022-09-23T02:06:41.513Z,101123.26
2022-09-23T02:09:50.131Z,101121.62
2022-09-23T02:12:59.289Z,101125.48
2022-09-23T02:16:06.423Z,101122.95
2022-09-23T02:19:14.476Z,101120.69
2022-09-23T02:22:21.904Z,101120.81
2022-09-23T02:25:34.046Z,101120.65
2022-09-23T02:28:43.280Z,101115.67
2022-09-23T02:31:54.959Z,101117.41
2022-09-23T02:35:04.793Z,101115.89
2022-09-23T02:38:17.960Z,101112.51
2022-09-23T02:41:27.738Z,101112.55
2022-09-23T02:44:33.074Z,101113.71
2022-09-23T02:47:40.752Z,101112.83
2022-09-23T02:50:47.769Z,101109.12
2022-09-23T02:53:56.327Z,101108.55
2022-09-23T02:57:02.854Z,101104.52
2022-09-23T03:00:09.077Z,101105.94
2022-09-23T03:03:23.110Z,101108.81
2022-09-23T03:06:30.970Z,101105.19
2022-09-23T03:09:38.785Z,101107.51
2022-09-23T03:12:53.001Z,101105.67
2022-09-23T03:16:02.687Z,101102.02
2022-09-23T03:19:16.609Z,101103.96
2022-09-23T03:22:24.371Z,101098.69
2022-09-23T03:25:33.240Z,101099.21
2022-09-23T03:28:39.730Z,101097.64
2022-09-23T03:31:46.024Z,101093.14
2022-09-23T03:34:52.826Z,101092.52
2022-09-23T03:38:02.721Z,101086.41
2022-09-23T03:41:10.770Z,101087.96
2022-09-23T03:44:17.357Z,101084.46
2022-09-23T03:47:22.671Z,101080.73
2022-09-23T03:50:28.010Z,101085.08
2022-09-23T03:53:33.303Z,101079.55
2022-09-23T03:56:38.667Z,101072.39
2022-09-23T03:59:44.346Z,101068.15
2022-09-23T04:02:50.235Z,101066.35
2022-09-23T04:05:55.796Z,101064.95
2022-09-23T04:09:01.703Z,101069.05
2022-09-23T04:12:07.265Z,101074.89
2022-09-23T04:15:13.117Z,101071.58
2022-09-23T04:18:18.406Z,101071.98
2022-09-23T04:21:23.609Z,101067.75
2022-09-23T04:24:29.147Z,101068.45
2022-09-23T04:27:37.608Z,101065.48
2022-09-23T04:30:44.314Z,101059.42
2022-09-23T04:33:49.535Z,101062.27
2022-09-23T04:36:54.887Z,101054.76
2022-09-23T04:40:00.081Z,101057.00
2022-09-23T04:43:05.418Z,101053.30
2022-09-23T04:46:11.442Z,101052.45
2022-09-23T04:49:17.149Z,101053.34
2022-09-23T04:52:22.556Z,101051.59
2022-09-23T04:55:27.924Z,101051.70
2022-09-23T04:58:34.248Z,101051.52
2022-09-23T05:01:39.868Z,101051.81
2022-09-23T05:04:45.291Z,101047.28
2022-09-23T05:07:50.980Z,101049.37
2022-09-23T05:10:59.246Z,101051.88
2022-09-23T05:14:04.483Z,101054.34
2022-09-23T05:17:09.893Z,101054.06
2022-09-23T05:20:15.041Z,101050.36
2022-09-23T05:23:20.377Z,101051.82
2022-09-23T05:26:26.481Z,101053.23
2022-09-23T05:29:31.587Z,101055.52
2022-09-23T05:32:36.776Z,101053.82
2022-09-23T05:35:47.332Z,101054.89
2022-09-23T05:38:52.935Z,101053.45
2022-09-23T05:42:00.153Z,101054.29
2022-09-23T05:45:07.614Z,101052.77
2022-09-23T05:48:12.944Z,101051.92
2022-09-23T05:51:19.033Z,101053.44
2022-09-23T05:54:24.471Z,101049.06
2022-09-23T05:57:30.268Z,101049.42
2022-09-23T06:00:35.514Z,101049.38
2022-09-23T06:03:40.997Z,101046.67
2022-09-23T06:06:46.151Z,101047.39
2022-09-23T06:09:51.699Z,101046.37
2022-09-23T06:12:57.085Z,101051.19
2022-09-23T06:16:03.308Z,101053.27
2022-09-23T06:19:09.982Z,101050.05
2022-09-23T06:22:17.027Z,101050.09
2022-09-23T06:25:23.148Z,101051.71
2022-09-23T06:28:30.225Z,101048.10
2022-09-23T06:31:35.334Z,101047.48
2022-09-23T06:34:50.781Z,101047.69
2022-09-23T06:37:58.112Z,101046.18
2022-09-23T06:41:04.329Z,101042.63
2022-09-23T06:44:09.626Z,101042.31
2022-09-23T06:47:15.372Z,101037.48
2022-09-23T06:50:20.448Z,101034.70
2022-09-23T06:53:26.097Z,101030.45
2022-09-23T06:56:34.872Z,101033.00
2022-09-23T06:59:43.918Z,101028.86
2022-09-23T07:02:49.266Z,101030.00
2022-09-23T07:05:56.825Z,101027.20
2022-09-23T07:09:03.388Z,101021.42
2022-09-23T07:12:09.135Z,101017.97
2022-09-23T07:15:15.432Z,101017.57
2022-09-23T07:18:23.623Z,101023.14
2022-09-23T07:21:28.733Z,101026.50
2022-09-23T07:24:34.405Z,101023.25
2022-09-23T07:27:40.002Z,101026.94
2022-09-23T07:30:55.929Z,101027.81
2022-09-23T07:34:03.891Z,101032.61
2022-09-23T07:37:09.050Z,101031.09
2022-09-23T07:40:14.369Z,101032.42
2022-09-23T07:43:19.984Z,101036.67
2022-09-23T07:46:26.049Z,101042.78
2022-09-23T07:49:31.474Z,101042.98
2022-09-23T07:52:38.039Z,101044.55
2022-09-23T07:55:43.307Z,101043.08
2022-09-23T07:59:04.502Z,101041.13
2022-09-23T08:02:15.547Z,101039.64
2022-09-23T08:05:20.909Z,101042.69
2022-09-23T08:08:27.374Z,101042.52
2022-09-23T08:11:33.046Z,101043.69
2022-09-23T08:14:38.736Z,101042.88
2022-09-23T08:17:44.042Z,101043.45
2022-09-23T08:20:49.251Z,101042.66
2022-09-23T08:23:54.485Z,101040.17
2022-09-23T08:26:59.751Z,101037.33
2022-09-23T08:30:05.344Z,101037.39
2022-09-23T08:33:11.027Z,101037.02
2022-09-23T08:36:16.305Z,101036.91
2022-09-23T08:39:22.925Z,101037.39
2022-09-23T08:42:32.378Z,101038.68
2022-09-23T08:45:38.571Z,101032.77
2022-09-23T08:48:45.611Z,101028.83
2022-09-23T08:51:54.411Z,101028.14
2022-09-23T08:54:59.730Z,101025.39
2022-09-23T08:58:26.267Z,101024.46
2022-09-23T09:01:35.701Z,101025.88
2022-09-23T09:04:44.330Z,101021.61
2022-09-23T09:07:50.476Z,101017.87
2022-09-23T09:10:58.158Z,101018.42
2022-09-23T09:14:06.937Z,101015.06
2022-09-23T09:17:13.972Z,101013.45
2022-09-23T09:20:23.345Z,101013.55
2022-09-23T09:23:32.837Z,101008.23
2022-09-23T09:26:39.714Z,101005.13
2022-09-23T09:29:49.874Z,101007.11
2022-09-23T09:32:59.264Z,101003.89
2022-09-23T09:36:09.996Z,101010.89
2022-09-23T09:39:16.371Z,101003.36
2022-09-23T09:42:26.106Z,100994.89
2022-09-23T09:45:38.593Z,100999.11
2022-09-23T09:48:50.825Z,100997.77
2022-09-23T09:52:09.896Z,101000.27
2022-09-23T09:55:25.075Z,100994.89
2022-09-23T09:58:34.196Z,100994.02
2022-09-23T10:01:39.578Z,100991.30
2022-09-23T10:04:44.939Z,100988.91
2022-09-23T10:07:50.267Z,100981.83
2022-09-23T10:11:01.165Z,100983.39
2022-09-23T10:14:09.361Z,100984.23
2022-09-23T10:17:16.838Z,100980.42
2022-09-23T10:20:22.089Z,100979.50
2022-09-23T10:23:29.107Z,100977.15
2022-09-23T10:26:36.173Z,100977.42
2022-09-23T10:29:43.150Z,100974.03
2022-09-23T10:32:48.792Z,100968.99
2022-09-23T10:35:57.353Z,100971.93
2022-09-23T10:39:17.592Z,100966.41
2022-09-23T10:42:46.142Z,100961.48
2022-09-23T10:46:09.104Z,100966.56
2022-09-23T10:49:31.131Z,100968.10
2022-09-23T10:52:52.501Z,100974.34
2022-09-23T10:56:13.008Z,100973.66
2022-09-23T10:59:29.196Z,100966.99
2022-09-23T11:02:47.385Z,100963.48
2022-09-23T11:06:01.837Z,100961.14
2022-09-23T11:09:16.525Z,100953.02
2022-09-23T11:12:26.885Z,100950.13
2022-09-23T11:15:42.238Z,100946.23
2022-09-23T11:18:50.939Z,100934.48
2022-09-23T11:22:02.158Z,100930.95
2022-09-23T11:25:18.980Z,100924.70
2022-09-23T11:28:37.701Z,100919.52
2022-09-23T11:31:49.937Z,100915.05
2022-09-23T11:35:04.384Z,100913.27
2022-09-23T11:38:12.365Z,100917.11
2022-09-23T11:41:19.547Z,100914.31
2022-09-23T11:44:27.983Z,100908.44
2022-09-23T11:47:39.749Z,100909.09
2022-09-23T11:50:50.354Z,100900.29
2022-09-23T11:53:59.709Z,100894.48
2022-09-23T11:57:07.731Z,100891.41
2022-09-23T12:00:15.996Z,100891.04
2022-09-23T12:03:35.873Z,100882.34
2022-09-23T12:06:46.142Z,100880.33
2022-09-23T12:09:58.409Z,100880.19
2022-09-23T12:13:08.531Z,100893.00
2022-09-23T12:16:31.192Z,100898.89
2022-09-23T12:19:51.656Z,100901.46
2022-09-23T12:23:04.144Z,100897.95
2022-09-23T12:26:17.273Z,100893.91
2022-09-23T12:29:25.631Z,100880.48
2022-09-23T12:32:31.384Z,100878.23
2022-09-23T12:35:40.067Z,100877.97
2022-09-23T12:38:51.361Z,100879.23
2022-09-23T12:41:58.717Z,100873.89
2022-09-23T12:45:21.387Z,100895.13
2022-09-23T12:48:44.416Z,100888.03
2022-09-23T12:52:05.028Z,100884.50
2022-09-23T12:55:24.375Z,100874.75
2022-09-23T12:58:46.275Z,100873.08
2022-09-23T13:01:52.270Z,100868.42
2022-09-23T13:05:28.631Z,100860.30
2022-09-23T13:08:37.606Z,100847.49
2022-09-23T13:11:53.147Z,100853.71
2022-09-23T13:15:03.557Z,100857.16
2022-09-23T13:18:50.698Z,100866.96
2022-09-23T13:22:09.179Z,100862.88
2022-09-23T13:25:23.271Z,100868.36
2022-09-23T13:28:31.026Z,100860.74
2022-09-23T13:31:36.499Z,100859.05
2022-09-23T13:34:44.240Z,100856.41
2022-09-23T13:37:50.560Z,100849.20
2022-09-23T13:40:59.822Z,100839.36
2022-09-23T13:44:15.319Z,100841.42
2022-09-23T13:47:21.063Z,100840.53
2022-09-23T13:50:32.882Z,100832.52
2022-09-23T13:53:41.352Z,100824.52
2022-09-23T13:56:49.510Z,100820.34
2022-09-23T13:59:54.887Z,100820.90
2022-09-23T14:03:00.276Z,100816.17
2022-09-23T14:06:08.538Z,100818.00
2022-09-23T14:09:14.648Z,100815.89
2022-09-23T14:12:22.433Z,100803.02
2022-09-23T14:15:27.929Z,100795.61
2022-09-23T14:18:35.809Z,100791.21
2022-09-23T14:21:41.367Z,100798.49
2022-09-23T14:24:47.309Z,100792.21
2022-09-23T14:27:54.553Z,100789.65
2022-09-23T14:31:03.702Z,100786.77
2022-09-23T14:34:35.416Z,100783.80
2022-09-23T14:38:01.510Z,100772.45
2022-09-23T14:41:18.176Z,100763.55
2022-09-23T14:44:25.144Z,100757.42
2022-09-23T14:47:31.144Z,100752.89
2022-09-23T14:50:48.487Z,100746.38
2022-09-23T14:53:53.813Z,100740.20
2022-09-23T14:56:59.170Z,100735.90
2022-09-23T15:00:10.112Z,100733.36
2022-09-23T15:03:16.337Z,100731.83
2022-09-23T15:06:24.583Z,100731.21
2022-09-23T15:09:31.521Z,100725.48
2022-09-23T15:12:40.090Z,100720.54
2022-09-23T15:15:45.565Z,100723.76
2022-09-23T15:18:54.912Z,100724.45
2022-09-23T15:22:02.896Z,100720.58
2022-09-23T15:25:16.559Z,100711.95
2022-09-23T15:28:23.732Z,100706.73
2022-09-23T15:31:29.114Z,100703.85
2022-09-23T15:34:34.345Z,100705.15
2022-09-23T15:37:40.368Z,100701.72
2022-09-23T15:40:45.687Z,100701.52
2022-09-23T15:43:51.361Z,100700.31
2022-09-23T15:46:59.228Z,100699.25
2022-09-23T15:50:07.203Z,100698.69
2022-09-23T15:53:15.921Z,100694.20
2022-09-23T15:56:21.108Z,100686.21
2022-09-23T15:59:26.368Z,100683.77
2022-09-23T16:02:33.424Z,100686.70
2022-09-23T16:05:40.138Z,100686.64
2022-09-23T16:08:45.164Z,100685.77
2022-09-23T16:11:52.026Z,100690.67
2022-09-23T16:14:57.281Z,100687.81
2022-09-23T16:18:02.572Z,100684.94
2022-09-23T16:21:10.746Z,100689.70
2022-09-23T16:24:21.705Z,100688.86
2022-09-23T16:27:30.889Z,100681.83
2022-09-23T16:30:35.977Z,100677.09
2022-09-23T16:33:41.206Z,100676.45
2022-09-23T16:36:47.613Z,100674.90
2022-09-23T16:39:52.771Z,100673.64
2022-09-23T16:42:58.432Z,100672.55
2022-09-23T16:46:03.805Z,100672.98
2022-09-23T16:49:12.239Z,100668.89
2022-09-23T16:52:17.452Z,100668.84
2022-09-23T16:55:25.712Z,100661.20
2022-09-23T16:58:30.949Z,100661.27
2022-09-23T17:01:54.128Z,100661.44
2022-09-23T17:05:01.561Z,100658.89
2022-09-23T17:08:08.751Z,100658.44
2022-09-23T17:11:14.448Z,100659.02
2022-09-23T17:14:21.203Z,100653.52
2022-09-23T17:17:28.540Z,100651.95
2022-09-23T17:20:34.446Z,100649.66
2022-09-23T17:23:39.744Z,100649.44
2022-09-23T17:26:49.367Z,100651.54
2022-09-23T17:29:58.054Z,100654.67
2022-09-23T17:33:03.644Z,100655.55
2022-09-23T17:36:10.507Z,100657.02
2022-09-23T17:39:18.856Z,100659.80
2022-09-23T17:42:24.354Z,100656.44
2022-09-23T17:45:30.221Z,100663.59
2022-09-23T17:48:37.144Z,100664.06
2022-09-23T17:51:42.681Z,100661.85
2022-09-23T17:54:55.122Z,100661.73
2022-09-23T17:58:00.606Z,100659.05
2022-09-23T18:01:06.547Z,100655.49
2022-09-23T18:04:11.888Z,100655.80
2022-09-23T18:07:17.356Z,100655.11
2022-09-23T18:10:23.279Z,100654.56
2022-09-23T18:13:28.695Z,100653.50
2022-09-23T18:16:35.768Z,100657.30
2022-09-23T18:19:41.144Z,100655.30
2022-09-23T18:22:46.655Z,100653.98
2022-09-23T18:25:52.096Z,100652.95
2022-09-23T18:29:01.556Z,100652.54
2022-09-23T18:32:09.976Z,100654.20
2022-09-23T18:35:17.827Z,100651.14
2022-09-23T18:38:23.219Z,100652.08
2022-09-23T18:41:28.727Z,100650.31
2022-09-23T18:44:34.121Z,100647.56
2022-09-23T18:47:56.600Z,100641.64
2022-09-23T18:51:01.825Z,100640.55
2022-09-23T18:54:08.067Z,100636.05
2022-09-23T18:57:16.001Z,100635.17
2022-09-23T19:00:21.354Z,100636.39
2022-09-23T19:03:26.840Z,100639.02
2022-09-23T19:06:32.953Z,100640.05
2022-09-23T19:09:38.421Z,100640.38
2022-09-23T19:12:43.807Z,100638.38
2022-09-23T19:15:49.243Z,100639.19
2022-09-23T19:18:55.166Z,100637.05
2022-09-23T19:22:00.839Z,100633.09
2022-09-23T19:25:06.935Z,100631.17
2022-09-23T19:28:12.338Z,100631.52
2022-09-23T19:31:18.345Z,100629.82
2022-09-23T19:34:26.102Z,100632.96
2022-09-23T19:37:31.639Z,100638.48
2022-09-23T19:40:37.550Z,100636.73
2022-09-23T19:43:42.821Z,100634.61
2022-09-23T19:46:53.487Z,100630.58
2022-09-23T19:50:01.239Z,100634.23
2022-09-23T19:53:07.118Z,100630.29
2022-09-23T19:56:14.446Z,100630.13
2022-09-23T19:59:19.765Z,100629.44
2022-09-23T20:02:25.460Z,100624.53
2022-09-23T20:05:30.808Z,100623.05
2022-09-23T20:08:37.806Z,100622.97
2022-09-23T20:11:44.292Z,100621.08
2022-09-23T20:14:51.451Z,100624.59
2022-09-23T20:17:56.834Z,100620.21
2022-09-23T20:21:02.144Z,100614.63
2022-09-23T20:24:09.555Z,100616.50
2022-09-23T20:27:15.630Z,100610.89
2022-09-23T20:30:21.398Z,100609.55
2022-09-23T20:33:26.754Z,100609.96
2022-09-23T20:36:32.207Z,100609.45
2022-09-23T20:39:37.560Z,100607.77
2022-09-23T20:42:42.864Z,100605.98
2022-09-23T20:45:52.277Z,100604.65
2022-09-23T20:48:57.896Z,100608.10
2022-09-23T20:52:03.856Z,100608.50
2022-09-23T20:55:10.822Z,100606.39
2022-09-23T20:58:19.171Z,100607.56
2022-09-23T21:01:24.545Z,100605.42
2022-09-23T21:04:30.047Z,100604.79
2022-09-23T21:07:35.342Z,100609.50
2022-09-23T21:10:42.360Z,100612.45
2022-09-23T21:13:48.407Z,100615.36
2022-09-23T21:16:54.802Z,100610.63
2022-09-23T21:20:01.489Z,100614.29
2022-09-23T21:23:07.483Z,100611.77
2022-09-23T21:26:13.756Z,100614.11
2022-09-23T21:29:19.260Z,100618.09
2022-09-23T21:32:24.373Z,100614.06
2022-09-23T21:35:29.618Z,100613.50
2022-09-23T21:38:36.509Z,100607.67
2022-09-23T21:41:42.317Z,100599.04
2022-09-23T21:44:47.706Z,100601.17
2022-09-23T21:47:54.255Z,100600.80
2022-09-23T21:51:00.603Z,100598.58
2022-09-23T21:54:07.281Z,100596.73
2022-09-23T21:57:13.973Z,100591.64
2022-09-23T22:00:19.321Z,100591.42
2022-09-23T22:03:24.652Z,100585.39
2022-09-23T22:06:30.560Z,100588.41
2022-09-23T22:09:36.070Z,100591.00
2022-09-23T22:12:41.433Z,100589.96
2022-09-23T22:15:46.915Z,100586.65
2022-09-23T22:18:55.239Z,100584.09
2022-09-23T22:22:00.552Z,100584.16
2022-09-23T22:25:06.357Z,100580.55
2022-09-23T22:28:29.426Z,100580.30
2022-09-23T22:31:52.681Z,100574.86
2022-09-23T22:34:58.259Z,100573.55
2022-09-23T22:38:03.551Z,100570.80
2022-09-23T22:41:09.113Z,100574.77
2022-09-23T22:44:14.443Z,100575.11
2022-09-23T22:47:20.334Z,100570.40
2022-09-23T22:50:25.615Z,100571.64
2022-09-23T22:53:30.925Z,100566.56
2022-09-23T22:56:36.368Z,100564.13
2022-09-23T22:59:43.805Z,100561.12
2022-09-23T23:02:49.066Z,100564.92
2022-09-23T23:05:57.473Z,100563.51
2022-09-23T23:09:06.977Z,100561.59
2022-09-23T23:12:12.492Z,100560.52
2022-09-23T23:15:17.845Z,100560.42
2022-09-23T23:18:27.062Z,100561.43
2022-09-23T23:21:32.817Z,100557.02
2022-09-23T23:24:38.179Z,100563.04
2022-09-23T23:27:43.611Z,100563.08
2022-09-23T23:30:49.068Z,100557.81
2022-09-23T23:33:54.757Z,100556.44
2022-09-23T23:37:00.109Z,100553.78
2022-09-23T23:40:05.944Z,100551.20
2022-09-23T23:43:11.492Z,100548.81
2022-09-23T23:46:18.344Z,100549.27
2022-09-23T23:49:23.734Z,100549.93
2022-09-23T23:52:28.905Z,100545.16
2022-09-23T23:55:38.205Z,100542.38
2022-09-23T23:58:43.872Z,100537.17
